N17AW KMGJ-KMGJ
Flight info
| Callsign | N17AW |
|---|---|
| Flight time | 0h 13m |
| Altitude | 7000 |
| Route | ALB |
| Aircraft | C208/L-SDFGR/C |
Departure
| Time | 2026-04-26 17:57 |
|---|---|
| Airport | Orange County Airport (KMGJ) |
Arrival
| Time | 2026-04-26 18:10 |
|---|---|
| Airport | Orange County Airport (KMGJ) |
| Time | Latitude | Longitude | Altitude | Speed | Heading |
|---|---|---|---|---|---|
| 2026-04-26 16:45 | 43.86928 | -73.41225 | 303 ft | 0 kts | 294° |
| 2026-04-26 16:52 | 43.86929 | -73.41228 | 303 ft | 2 kts | 306° |
| 2026-04-26 16:52 | 43.86993 | -73.41209 | 302 ft | 0 kts | 317° |
| 2026-04-26 17:08 | 43.86995 | -73.41211 | 301 ft | 2 kts | 315° |
| 2026-04-26 17:08 | 43.87006 | -73.41259 | 302 ft | 10 kts | 282° |
| 2026-04-26 17:08 | 43.87091 | -73.41306 | 302 ft | 17 kts | 6° |
| 2026-04-26 17:08 | 43.87136 | -73.41301 | 301 ft | 0 kts | 2° |
| 2026-04-26 17:09 | 43.87137 | -73.41301 | 301 ft | 1 kts | 2° |
| 2026-04-26 17:09 | 43.87155 | -73.41300 | 302 ft | 7 kts | 354° |
| 2026-04-26 17:09 | 43.87272 | -73.41344 | 302 ft | 30 kts | 4° |
| 2026-04-26 17:09 | 43.87684 | -73.41324 | 314 ft | 80 kts | 1° |
| 2026-04-26 17:10 | 43.88300 | -73.41345 | 494 ft | 100 kts | 358° |
| 2026-04-26 17:10 | 43.88985 | -73.41368 | 913 ft | 98 kts | 4° |
| 2026-04-26 17:10 | 43.89619 | -73.41112 | 1327 ft | 90 kts | 32° |
| 2026-04-26 17:10 | 43.90018 | -73.40404 | 1542 ft | 104 kts | 68° |
| 2026-04-26 17:11 | 43.90009 | -73.39366 | 1786 ft | 116 kts | 109° |
| 2026-04-26 17:11 | 43.89418 | -73.38607 | 2060 ft | 123 kts | 158° |
| 2026-04-26 17:11 | 43.88569 | -73.38610 | 2387 ft | 127 kts | 196° |
| 2026-04-26 17:11 | 43.87734 | -73.39118 | 2625 ft | 137 kts | 205° |
| 2026-04-26 17:12 | 43.85956 | -73.40335 | 3216 ft | 149 kts | 206° |
| 2026-04-26 17:12 | 43.84953 | -73.40993 | 3227 ft | 163 kts | 204° |
| 2026-04-26 17:13 | 43.82874 | -73.42016 | 3503 ft | 166 kts | 198° |
| 2026-04-26 17:13 | 43.81756 | -73.42540 | 3405 ft | 175 kts | 198° |
| 2026-04-26 17:13 | 43.79388 | -73.43679 | 3210 ft | 182 kts | 198° |
| 2026-04-26 17:14 | 43.78219 | -73.44385 | 3113 ft | 183 kts | 206° |
| 2026-04-26 17:14 | 43.75950 | -73.45903 | 2996 ft | 179 kts | 205° |
| 2026-04-26 17:14 | 43.74852 | -73.46638 | 2990 ft | 177 kts | 206° |
| 2026-04-26 17:15 | 43.72645 | -73.48122 | 2989 ft | 175 kts | 205° |
| 2026-04-26 17:15 | 43.71562 | -73.48847 | 2994 ft | 173 kts | 206° |
| 2026-04-26 17:15 | 43.70469 | -73.49582 | 2993 ft | 173 kts | 205° |
| 2026-04-26 17:16 | 43.69390 | -73.50309 | 2989 ft | 174 kts | 206° |
| 2026-04-26 17:16 | 43.68307 | -73.51032 | 2992 ft | 173 kts | 206° |
| 2026-04-26 17:16 | 43.67214 | -73.51760 | 3000 ft | 173 kts | 206° |
| 2026-04-26 17:16 | 43.66122 | -73.52490 | 2997 ft | 173 kts | 206° |
| 2026-04-26 17:17 | 43.65040 | -73.53228 | 3001 ft | 175 kts | 206° |
| 2026-04-26 17:17 | 43.63957 | -73.53955 | 2997 ft | 173 kts | 206° |
| 2026-04-26 17:17 | 43.62877 | -73.54676 | 2996 ft | 173 kts | 206° |
| 2026-04-26 17:17 | 43.61803 | -73.55398 | 2995 ft | 173 kts | 206° |
| 2026-04-26 17:18 | 43.60708 | -73.56133 | 2994 ft | 174 kts | 206° |
| 2026-04-26 17:18 | 43.59615 | -73.56867 | 2995 ft | 173 kts | 206° |
| 2026-04-26 17:18 | 43.58542 | -73.57587 | 2990 ft | 172 kts | 206° |
| 2026-04-26 17:18 | 43.57461 | -73.58314 | 2987 ft | 171 kts | 206° |
| 2026-04-26 17:19 | 43.55301 | -73.59771 | 2986 ft | 174 kts | 206° |
| 2026-04-26 17:19 | 43.54214 | -73.60499 | 2985 ft | 174 kts | 206° |
| 2026-04-26 17:19 | 43.53119 | -73.61230 | 2985 ft | 175 kts | 206° |
| 2026-04-26 17:20 | 43.52041 | -73.61958 | 2984 ft | 174 kts | 206° |
| 2026-04-26 17:20 | 43.51672 | -73.62205 | 2986 ft | 173 kts | 206° |
| 2026-04-26 17:20 | 43.49877 | -73.63404 | 2981 ft | 173 kts | 206° |
| 2026-04-26 17:20 | 43.48786 | -73.64135 | 2978 ft | 174 kts | 206° |
| 2026-04-26 17:21 | 43.47702 | -73.64860 | 2981 ft | 174 kts | 206° |
| 2026-04-26 17:21 | 43.46628 | -73.65596 | 2978 ft | 173 kts | 207° |
| 2026-04-26 17:21 | 43.45577 | -73.66412 | 2981 ft | 170 kts | 204° |
| 2026-04-26 17:21 | 43.44442 | -73.66786 | 2977 ft | 170 kts | 186° |
| 2026-04-26 17:22 | 43.43266 | -73.67039 | 2984 ft | 172 kts | 186° |
| 2026-04-26 17:22 | 43.42087 | -73.67284 | 2988 ft | 174 kts | 186° |
| 2026-04-26 17:22 | 43.40888 | -73.67514 | 2982 ft | 172 kts | 186° |
| 2026-04-26 17:22 | 43.39715 | -73.67739 | 2984 ft | 170 kts | 186° |
| 2026-04-26 17:23 | 43.38550 | -73.67966 | 2983 ft | 170 kts | 186° |
| 2026-04-26 17:23 | 43.37374 | -73.68196 | 2978 ft | 169 kts | 186° |
| 2026-04-26 17:23 | 43.36216 | -73.68414 | 2990 ft | 169 kts | 186° |
| 2026-04-26 17:23 | 43.35047 | -73.68656 | 3001 ft | 169 kts | 186° |
| 2026-04-26 17:24 | 43.33859 | -73.68909 | 2998 ft | 174 kts | 186° |
| 2026-04-26 17:24 | 43.32651 | -73.69141 | 2996 ft | 179 kts | 183° |
| 2026-04-26 17:24 | 43.31420 | -73.69353 | 2975 ft | 176 kts | 187° |
| 2026-04-26 17:24 | 43.30217 | -73.69570 | 2984 ft | 172 kts | 185° |
| 2026-04-26 17:25 | 43.29047 | -73.69835 | 2981 ft | 170 kts | 188° |
| 2026-04-26 17:25 | 43.27884 | -73.70076 | 2980 ft | 170 kts | 184° |
| 2026-04-26 17:25 | 43.26710 | -73.70264 | 2975 ft | 171 kts | 186° |
| 2026-04-26 17:25 | 43.25528 | -73.70491 | 2977 ft | 171 kts | 186° |
| 2026-04-26 17:26 | 43.24340 | -73.70729 | 2984 ft | 170 kts | 186° |
| 2026-04-26 17:26 | 43.23177 | -73.70959 | 2980 ft | 169 kts | 186° |
| 2026-04-26 17:26 | 43.22008 | -73.71189 | 2980 ft | 169 kts | 185° |
| 2026-04-26 17:26 | 43.20853 | -73.71445 | 2984 ft | 169 kts | 185° |
| 2026-04-26 17:27 | 43.19679 | -73.71639 | 2980 ft | 169 kts | 184° |
| 2026-04-26 17:27 | 43.18515 | -73.71849 | 2980 ft | 169 kts | 187° |
| 2026-04-26 17:27 | 43.17350 | -73.72102 | 2988 ft | 173 kts | 186° |
| 2026-04-26 17:27 | 43.16146 | -73.72305 | 3003 ft | 175 kts | 187° |
| 2026-04-26 17:28 | 43.14948 | -73.72542 | 2988 ft | 172 kts | 186° |
| 2026-04-26 17:28 | 43.13769 | -73.72784 | 2987 ft | 171 kts | 187° |
| 2026-04-26 17:28 | 43.12982 | -73.72941 | 2980 ft | 172 kts | 185° |
| 2026-04-26 17:28 | 43.11383 | -73.73229 | 2984 ft | 172 kts | 186° |
| 2026-04-26 17:29 | 43.10601 | -73.73389 | 2983 ft | 170 kts | 186° |
| 2026-04-26 17:29 | 43.09811 | -73.73497 | 2895 ft | 172 kts | 171° |
| 2026-04-26 17:29 | 43.08305 | -73.73769 | 2990 ft | 164 kts | 193° |
| 2026-04-26 17:29 | 43.07184 | -73.74078 | 3001 ft | 166 kts | 186° |
| 2026-04-26 17:30 | 43.06009 | -73.74287 | 2990 ft | 171 kts | 184° |
| 2026-04-26 17:30 | 43.04840 | -73.74499 | 2997 ft | 171 kts | 186° |
| 2026-04-26 17:30 | 43.03671 | -73.74747 | 2994 ft | 171 kts | 186° |
| 2026-04-26 17:30 | 43.02485 | -73.74974 | 3002 ft | 171 kts | 185° |
| 2026-04-26 17:31 | 43.01319 | -73.75192 | 2999 ft | 170 kts | 186° |
| 2026-04-26 17:31 | 43.00140 | -73.75418 | 3000 ft | 169 kts | 185° |
| 2026-04-26 17:31 | 42.98983 | -73.75639 | 2998 ft | 169 kts | 187° |
| 2026-04-26 17:31 | 42.97816 | -73.75865 | 2996 ft | 170 kts | 186° |
| 2026-04-26 17:32 | 42.96635 | -73.76101 | 2991 ft | 175 kts | 187° |
| 2026-04-26 17:32 | 42.95436 | -73.76336 | 2992 ft | 171 kts | 184° |
| 2026-04-26 17:32 | 42.94269 | -73.76540 | 2992 ft | 169 kts | 186° |
| 2026-04-26 17:32 | 42.93095 | -73.76768 | 2988 ft | 170 kts | 186° |
| 2026-04-26 17:33 | 42.91944 | -73.76962 | 2985 ft | 168 kts | 183° |
| 2026-04-26 17:33 | 42.90784 | -73.77198 | 2987 ft | 167 kts | 186° |
| 2026-04-26 17:33 | 42.89636 | -73.77362 | 2946 ft | 167 kts | 181° |
| 2026-04-26 17:34 | 42.87373 | -73.77939 | 3017 ft | 168 kts | 190° |
| 2026-04-26 17:34 | 42.86209 | -73.78167 | 3022 ft | 170 kts | 183° |
| 2026-04-26 17:34 | 42.85016 | -73.78308 | 2976 ft | 172 kts | 185° |
| 2026-04-26 17:34 | 42.83839 | -73.78530 | 3000 ft | 168 kts | 187° |
| 2026-04-26 17:35 | 42.82684 | -73.78758 | 2981 ft | 169 kts | 186° |
| 2026-04-26 17:35 | 42.81512 | -73.78992 | 2982 ft | 169 kts | 187° |
| 2026-04-26 17:35 | 42.80362 | -73.79214 | 2980 ft | 168 kts | 186° |
| 2026-04-26 17:35 | 42.79197 | -73.79439 | 2981 ft | 167 kts | 187° |
| 2026-04-26 17:36 | 42.78040 | -73.79660 | 2979 ft | 168 kts | 187° |
| 2026-04-26 17:36 | 42.76888 | -73.79869 | 2988 ft | 169 kts | 185° |
| 2026-04-26 17:36 | 42.75729 | -73.80070 | 2999 ft | 168 kts | 186° |
| 2026-04-26 17:36 | 42.74546 | -73.80262 | 2990 ft | 172 kts | 185° |
| 2026-04-26 17:37 | 42.73337 | -73.80461 | 2996 ft | 175 kts | 186° |
| 2026-04-26 17:37 | 42.72143 | -73.80670 | 2979 ft | 174 kts | 185° |
| 2026-04-26 17:37 | 42.70934 | -73.80882 | 2991 ft | 171 kts | 186° |
| 2026-04-26 17:38 | 42.68574 | -73.81302 | 2983 ft | 171 kts | 186° |
| 2026-04-26 17:38 | 42.67382 | -73.81517 | 2979 ft | 171 kts | 186° |
| 2026-04-26 17:38 | 42.66214 | -73.81724 | 2976 ft | 170 kts | 186° |
| 2026-04-26 17:38 | 42.65036 | -73.81935 | 2982 ft | 172 kts | 186° |
| 2026-04-26 17:39 | 42.63855 | -73.82148 | 2982 ft | 172 kts | 186° |
| 2026-04-26 17:39 | 42.62683 | -73.82360 | 2977 ft | 169 kts | 186° |
| 2026-04-26 17:39 | 42.61492 | -73.82561 | 2989 ft | 172 kts | 186° |
| 2026-04-26 17:39 | 42.60319 | -73.82774 | 2982 ft | 170 kts | 186° |
| 2026-04-26 17:40 | 42.59152 | -73.82987 | 2981 ft | 169 kts | 186° |
| 2026-04-26 17:40 | 42.58381 | -73.83127 | 2982 ft | 167 kts | 187° |
| 2026-04-26 17:40 | 42.56823 | -73.83397 | 2979 ft | 173 kts | 187° |
| 2026-04-26 17:40 | 42.55618 | -73.83604 | 2987 ft | 174 kts | 187° |
| 2026-04-26 17:41 | 42.54412 | -73.83825 | 2978 ft | 173 kts | 186° |
| 2026-04-26 17:41 | 42.53243 | -73.84003 | 2980 ft | 167 kts | 184° |
| 2026-04-26 17:41 | 42.52089 | -73.84214 | 2992 ft | 172 kts | 186° |
| 2026-04-26 17:41 | 42.50910 | -73.84434 | 2980 ft | 171 kts | 187° |
| 2026-04-26 17:42 | 42.49730 | -73.84648 | 2980 ft | 170 kts | 186° |
| 2026-04-26 17:42 | 42.48554 | -73.84858 | 2985 ft | 171 kts | 186° |
| 2026-04-26 17:42 | 42.47390 | -73.85065 | 2993 ft | 170 kts | 186° |
| 2026-04-26 17:42 | 42.46208 | -73.85289 | 3000 ft | 171 kts | 186° |
| 2026-04-26 17:43 | 42.45031 | -73.85509 | 2989 ft | 173 kts | 186° |
| 2026-04-26 17:43 | 42.43833 | -73.85758 | 2997 ft | 176 kts | 188° |
| 2026-04-26 17:43 | 42.42630 | -73.85980 | 2982 ft | 174 kts | 184° |
| 2026-04-26 17:43 | 42.41430 | -73.86180 | 2983 ft | 171 kts | 187° |
| 2026-04-26 17:44 | 42.40269 | -73.86399 | 2991 ft | 169 kts | 186° |
| 2026-04-26 17:44 | 42.39097 | -73.86615 | 2989 ft | 172 kts | 187° |
| 2026-04-26 17:44 | 42.37911 | -73.86832 | 2996 ft | 171 kts | 185° |
| 2026-04-26 17:44 | 42.36733 | -73.87060 | 2992 ft | 172 kts | 186° |
| 2026-04-26 17:45 | 42.35541 | -73.87292 | 2989 ft | 171 kts | 186° |
| 2026-04-26 17:45 | 42.34362 | -73.87503 | 2986 ft | 171 kts | 187° |
| 2026-04-26 17:45 | 42.33194 | -73.87714 | 2984 ft | 171 kts | 186° |
| 2026-04-26 17:45 | 42.32014 | -73.87925 | 2983 ft | 170 kts | 186° |
| 2026-04-26 17:46 | 42.30849 | -73.88137 | 2981 ft | 170 kts | 186° |
| 2026-04-26 17:46 | 42.29675 | -73.88351 | 2983 ft | 169 kts | 186° |
| 2026-04-26 17:46 | 42.28500 | -73.88572 | 2982 ft | 169 kts | 186° |
| 2026-04-26 17:46 | 42.27347 | -73.88804 | 2985 ft | 169 kts | 186° |
| 2026-04-26 17:47 | 42.26186 | -73.89052 | 2985 ft | 170 kts | 187° |
| 2026-04-26 17:47 | 42.25410 | -73.89208 | 2989 ft | 169 kts | 186° |
| 2026-04-26 17:47 | 42.23844 | -73.89532 | 2988 ft | 173 kts | 187° |
| 2026-04-26 17:47 | 42.22656 | -73.89775 | 2989 ft | 172 kts | 186° |
| 2026-04-26 17:48 | 42.21472 | -73.90012 | 2990 ft | 171 kts | 185° |
| 2026-04-26 17:48 | 42.20303 | -73.90243 | 2987 ft | 170 kts | 186° |
| 2026-04-26 17:48 | 42.19125 | -73.90488 | 2984 ft | 170 kts | 186° |
| 2026-04-26 17:48 | 42.17967 | -73.90717 | 2986 ft | 169 kts | 186° |
| 2026-04-26 17:49 | 42.16811 | -73.90952 | 2985 ft | 170 kts | 185° |
| 2026-04-26 17:49 | 42.15619 | -73.91202 | 2981 ft | 172 kts | 186° |
| 2026-04-26 17:49 | 42.14435 | -73.91448 | 2980 ft | 174 kts | 186° |
| 2026-04-26 17:49 | 42.13226 | -73.91698 | 2981 ft | 175 kts | 187° |
| 2026-04-26 17:50 | 42.12031 | -73.91945 | 2979 ft | 174 kts | 186° |
| 2026-04-26 17:50 | 42.10843 | -73.92192 | 2981 ft | 171 kts | 186° |
| 2026-04-26 17:50 | 42.09680 | -73.92424 | 2979 ft | 170 kts | 186° |
| 2026-04-26 17:50 | 42.08507 | -73.92667 | 2981 ft | 170 kts | 187° |
| 2026-04-26 17:51 | 42.07348 | -73.92912 | 2981 ft | 170 kts | 186° |
| 2026-04-26 17:51 | 42.06166 | -73.93164 | 2981 ft | 171 kts | 187° |
| 2026-04-26 17:51 | 42.04982 | -73.93406 | 2990 ft | 171 kts | 186° |
| 2026-04-26 17:51 | 42.03814 | -73.93653 | 2988 ft | 171 kts | 187° |
| 2026-04-26 17:52 | 42.02645 | -73.93883 | 2989 ft | 170 kts | 186° |
| 2026-04-26 17:52 | 42.01470 | -73.94122 | 2984 ft | 171 kts | 186° |
| 2026-04-26 17:52 | 42.00308 | -73.94358 | 2983 ft | 170 kts | 186° |
| 2026-04-26 17:52 | 41.99140 | -73.94598 | 2984 ft | 169 kts | 186° |
| 2026-04-26 17:53 | 41.97970 | -73.94841 | 2980 ft | 169 kts | 186° |
| 2026-04-26 17:53 | 41.96818 | -73.95077 | 2980 ft | 169 kts | 187° |
| 2026-04-26 17:53 | 41.95651 | -73.95320 | 2981 ft | 168 kts | 186° |
| 2026-04-26 17:54 | 41.93337 | -73.95806 | 2980 ft | 169 kts | 187° |
| 2026-04-26 17:54 | 41.92166 | -73.96054 | 2981 ft | 170 kts | 186° |
| 2026-04-26 17:54 | 41.90987 | -73.96308 | 2981 ft | 170 kts | 186° |
| 2026-04-26 17:54 | 41.89829 | -73.96546 | 2980 ft | 169 kts | 186° |
| 2026-04-26 17:55 | 41.88672 | -73.96783 | 2988 ft | 168 kts | 186° |
| 2026-04-26 17:55 | 41.87512 | -73.97018 | 2987 ft | 167 kts | 186° |
| 2026-04-26 17:55 | 41.86355 | -73.97251 | 2982 ft | 168 kts | 187° |
| 2026-04-26 17:55 | 41.85207 | -73.97491 | 2988 ft | 168 kts | 186° |
| 2026-04-26 17:56 | 41.84030 | -73.97745 | 2995 ft | 175 kts | 186° |
| 2026-04-26 17:56 | 41.81583 | -73.98256 | 2990 ft | 178 kts | 187° |
| 2026-04-26 17:57 | 41.79201 | -73.98732 | 2981 ft | 170 kts | 186° |
| 2026-04-26 17:57 | 41.78039 | -73.98970 | 2976 ft | 168 kts | 186° |
| 2026-04-26 17:57 | 41.76885 | -73.99214 | 2978 ft | 170 kts | 187° |
| 2026-04-26 17:57 | 41.75705 | -73.99473 | 2979 ft | 170 kts | 187° |
| 2026-04-26 17:58 | 41.72206 | -74.00200 | 2982 ft | 170 kts | 186° |
| 2026-04-26 17:59 | 41.69869 | -74.00699 | 2973 ft | 170 kts | 185° |
| 2026-04-26 17:59 | 41.68747 | -74.01124 | 2969 ft | 172 kts | 209° |
| 2026-04-26 17:59 | 41.67963 | -74.02319 | 2976 ft | 171 kts | 240° |
| 2026-04-26 17:59 | 41.67350 | -74.03687 | 2983 ft | 172 kts | 239° |
| 2026-04-26 18:00 | 41.66725 | -74.05052 | 2993 ft | 172 kts | 239° |
| 2026-04-26 18:00 | 41.66112 | -74.06418 | 2986 ft | 174 kts | 240° |
| 2026-04-26 18:00 | 41.65494 | -74.07795 | 2989 ft | 173 kts | 240° |
| 2026-04-26 18:00 | 41.64867 | -74.09190 | 2986 ft | 175 kts | 239° |
| 2026-04-26 18:01 | 41.64817 | -74.09301 | 2984 ft | 175 kts | 239° |
| 2026-04-26 18:03 | 41.64783 | -74.09376 | 2988 ft | 175 kts | 240° |
| 2026-04-26 18:03 | 41.64210 | -74.10797 | 2985 ft | 173 kts | 255° |
| 2026-04-26 18:03 | 41.64169 | -74.12388 | 3023 ft | 169 kts | 271° |
| 2026-04-26 18:03 | 41.64109 | -74.13191 | 3214 ft | 160 kts | 263° |
| 2026-04-26 18:04 | 41.64086 | -74.13397 | 3199 ft | 161 kts | 262° |
| 2026-04-26 18:04 | 41.63787 | -74.14900 | 3051 ft | 173 kts | 244° |
| 2026-04-26 18:04 | 41.63161 | -74.16274 | 3007 ft | 174 kts | 238° |
| 2026-04-26 18:05 | 41.61894 | -74.19014 | 3004 ft | 173 kts | 239° |
| 2026-04-26 18:05 | 41.61254 | -74.20374 | 3010 ft | 174 kts | 238° |
| 2026-04-26 18:05 | 41.60603 | -74.21760 | 3002 ft | 176 kts | 239° |
| 2026-04-26 18:05 | 41.59956 | -74.23142 | 3002 ft | 177 kts | 239° |
| 2026-04-26 18:06 | 41.59299 | -74.24539 | 2967 ft | 177 kts | 237° |
| 2026-04-26 18:06 | 41.58628 | -74.25847 | 2889 ft | 161 kts | 234° |
| 2026-04-26 18:06 | 41.57978 | -74.27011 | 2689 ft | 150 kts | 232° |
| 2026-04-26 18:06 | 41.57344 | -74.28089 | 2468 ft | 148 kts | 231° |
| 2026-04-26 18:07 | 41.56695 | -74.29141 | 2360 ft | 142 kts | 230° |
| 2026-04-26 18:07 | 41.56081 | -74.30123 | 2275 ft | 138 kts | 227° |
| 2026-04-26 18:07 | 41.55325 | -74.30946 | 2138 ft | 141 kts | 206° |
| 2026-04-26 18:07 | 41.55042 | -74.31141 | 2114 ft | 140 kts | 201° |
| 2026-04-26 18:08 | 41.53574 | -74.31408 | 2026 ft | 120 kts | 161° |
| 2026-04-26 18:08 | 41.52813 | -74.31051 | 1789 ft | 113 kts | 151° |
| 2026-04-26 18:08 | 41.52133 | -74.30596 | 1598 ft | 107 kts | 147° |
| 2026-04-26 18:08 | 41.51533 | -74.30154 | 1438 ft | 90 kts | 143° |
| 2026-04-26 18:09 | 41.51037 | -74.29702 | 1309 ft | 84 kts | 137° |
| 2026-04-26 18:09 | 41.50616 | -74.29265 | 1138 ft | 73 kts | 135° |
| 2026-04-26 18:09 | 41.50324 | -74.28717 | 867 ft | 73 kts | 107° |
| 2026-04-26 18:09 | 41.50265 | -74.28058 | 666 ft | 73 kts | 82° |
| 2026-04-26 18:10 | 41.50350 | -74.27636 | 557 ft | 70 kts | 70° |
| 2026-04-26 18:10 | 41.50607 | -74.26872 | 415 ft | 63 kts | 66° |
| 2026-04-26 18:10 | 41.50722 | -74.26524 | 368 ft | 58 kts | 66° |
| 2026-04-26 18:10 | 41.50892 | -74.26003 | 365 ft | 33 kts | 66° |
| 2026-04-26 18:11 | 41.50943 | -74.25851 | 370 ft | 24 kts | 66° |
| 2026-04-26 18:11 | 41.51004 | -74.25664 | 373 ft | 19 kts | 67° |
| 2026-04-26 18:11 | 41.51069 | -74.25613 | 375 ft | 10 kts | 334° |
| 2026-04-26 18:11 | 41.51084 | -74.25696 | 373 ft | 13 kts | 246° |
| 2026-04-26 18:12 | 41.51069 | -74.25806 | 369 ft | 10 kts | 310° |
| 2026-04-26 18:12 | 41.51107 | -74.25859 | 368 ft | 6 kts | 315° |
| 2026-04-26 18:12 | 41.51148 | -74.25909 | 367 ft | 9 kts | 317° |
| 2026-04-26 18:12 | 41.51196 | -74.25935 | 367 ft | 4 kts | 301° |
| 2026-04-26 18:13 | 41.51195 | -74.25940 | 366 ft | 0 kts | 226° |